createdAt,value
2023-07-15T00:00:49.843Z,20.40
2023-07-15T00:01:49.930Z,20.37
2023-07-15T00:02:49.861Z,20.29
2023-07-15T00:03:49.869Z,20.19
2023-07-15T00:04:49.842Z,20.14
2023-07-15T00:05:49.824Z,20.16
2023-07-15T00:06:49.823Z,20.10
2023-07-15T00:07:49.815Z,20.03
2023-07-15T00:08:49.836Z,19.89
2023-07-15T00:09:49.811Z,19.86
2023-07-15T00:10:49.804Z,19.84
2023-07-15T00:11:49.804Z,19.82
2023-07-15T00:12:49.817Z,19.84
2023-07-15T00:13:49.790Z,19.84
2023-07-15T00:14:49.789Z,19.84
2023-07-15T00:15:49.792Z,19.85
2023-07-15T00:16:49.783Z,19.74
2023-07-15T00:17:49.807Z,19.81
2023-07-15T00:18:49.783Z,19.74
2023-07-15T00:19:49.777Z,19.70
2023-07-15T00:20:49.768Z,19.69
2023-07-15T00:21:49.776Z,19.66
2023-07-15T00:22:49.829Z,19.66
2023-07-15T00:23:49.754Z,19.70
2023-07-15T00:24:49.755Z,19.73
2023-07-15T00:25:49.754Z,19.73
2023-07-15T00:26:49.761Z,19.74
2023-07-15T00:27:49.741Z,19.71
2023-07-15T00:28:49.738Z,19.71
2023-07-15T00:29:49.737Z,19.81
2023-07-15T00:30:49.736Z,19.73
2023-07-15T00:31:49.798Z,19.82
2023-07-15T00:32:49.779Z,19.70
2023-07-15T00:33:49.863Z,19.67
2023-07-15T00:34:49.719Z,19.70
2023-07-15T00:35:49.720Z,19.70
2023-07-15T00:36:49.717Z,19.74
2023-07-15T00:37:49.708Z,19.71
2023-07-15T00:38:49.733Z,19.70
2023-07-15T00:39:49.739Z,19.69
2023-07-15T00:40:49.703Z,19.74
2023-07-15T00:41:49.692Z,19.79
2023-07-15T00:42:49.686Z,19.81
2023-07-15T00:43:49.683Z,19.84
2023-07-15T00:44:49.686Z,19.82
2023-07-15T00:45:49.737Z,19.81
2023-07-15T00:46:49.673Z,19.81
2023-07-15T00:47:49.688Z,19.73
2023-07-15T00:48:49.665Z,19.70
2023-07-15T00:49:49.663Z,19.73
2023-07-15T00:50:49.660Z,19.71
2023-07-15T00:51:49.653Z,19.73
2023-07-15T00:52:49.651Z,19.66
2023-07-15T00:53:49.648Z,19.62
2023-07-15T00:54:49.644Z,19.66
2023-07-15T00:55:49.640Z,19.70
2023-07-15T00:56:49.635Z,19.64
2023-07-15T00:57:49.629Z,19.73
2023-07-15T00:58:49.627Z,19.66
2023-07-15T00:59:49.622Z,19.64
2023-07-15T01:00:49.654Z,19.64
2023-07-15T01:01:49.618Z,19.63
2023-07-15T01:02:49.781Z,19.54
2023-07-15T01:03:49.634Z,19.52
2023-07-15T01:04:49.602Z,19.63
2023-07-15T01:05:49.603Z,19.63
2023-07-15T01:06:49.602Z,19.59
2023-07-15T01:07:49.594Z,19.63
2023-07-15T01:08:49.586Z,19.67
2023-07-15T01:09:49.589Z,19.59
2023-07-15T01:10:49.580Z,19.63
2023-07-15T01:11:49.584Z,19.63
2023-07-15T01:12:49.575Z,19.55
2023-07-15T01:13:49.571Z,19.55
2023-07-15T01:14:49.566Z,19.51
2023-07-15T01:15:49.600Z,19.48
2023-07-15T01:16:49.578Z,19.52
2023-07-15T01:17:49.590Z,19.45
2023-07-15T01:18:49.544Z,19.51
2023-07-15T01:19:49.544Z,19.44
2023-07-15T01:20:49.541Z,19.54
2023-07-15T01:21:49.541Z,19.52
2023-07-15T01:22:49.580Z,19.55
2023-07-15T01:23:49.527Z,19.49
2023-07-15T01:24:49.524Z,19.48
2023-07-15T01:25:49.519Z,19.49
2023-07-15T01:26:49.515Z,19.54
2023-07-15T01:27:49.510Z,19.47
2023-07-15T01:28:49.503Z,19.49
2023-07-15T01:29:49.505Z,19.58
2023-07-15T01:30:49.527Z,19.58
2023-07-15T01:31:49.499Z,19.55
2023-07-15T01:32:49.533Z,19.67
2023-07-15T01:33:49.488Z,19.58
2023-07-15T01:34:49.482Z,19.55
2023-07-15T01:35:49.480Z,19.69
2023-07-15T01:36:49.476Z,19.56
2023-07-15T01:37:49.470Z,19.62
2023-07-15T01:38:49.470Z,19.54
2023-07-15T01:39:49.467Z,19.63
2023-07-15T01:40:49.466Z,19.56
2023-07-15T01:41:49.459Z,19.52
2023-07-15T01:42:49.454Z,19.51
2023-07-15T01:43:49.448Z,19.56
2023-07-15T01:44:49.446Z,19.55
2023-07-15T01:45:49.470Z,19.58
2023-07-15T01:46:49.471Z,19.49
2023-07-15T01:47:49.446Z,19.54
2023-07-15T01:48:49.484Z,19.56
2023-07-15T01:49:49.434Z,19.52
2023-07-15T01:50:49.428Z,19.56
2023-07-15T01:51:49.414Z,19.63
2023-07-15T01:52:49.411Z,19.56
2023-07-15T01:53:49.410Z,19.49
2023-07-15T01:54:49.400Z,19.59
2023-07-15T01:55:49.398Z,19.51
2023-07-15T01:56:49.396Z,19.48
2023-07-15T01:57:49.390Z,19.52
2023-07-15T01:58:49.408Z,19.56
2023-07-15T01:59:49.382Z,19.48
2023-07-15T02:00:49.443Z,19.47
2023-07-15T02:01:49.460Z,19.52
2023-07-15T02:02:49.505Z,19.47
2023-07-15T02:03:49.542Z,19.59
2023-07-15T02:04:49.369Z,19.59
2023-07-15T02:05:49.526Z,19.58
2023-07-15T02:06:49.348Z,19.64
2023-07-15T02:07:49.345Z,19.67
2023-07-15T02:08:49.344Z,19.66
2023-07-15T02:09:49.341Z,19.63
2023-07-15T02:10:49.332Z,19.69
2023-07-15T02:11:49.329Z,19.58
2023-07-15T02:12:49.326Z,19.67
2023-07-15T02:13:49.316Z,19.63
2023-07-15T02:14:49.316Z,19.66
2023-07-15T02:15:50.034Z,19.69
2023-07-15T02:16:49.347Z,19.69
2023-07-15T02:17:49.329Z,19.59
2023-07-15T02:18:49.310Z,19.62
2023-07-15T02:19:49.294Z,19.69
2023-07-15T02:20:49.293Z,19.73
2023-07-15T02:21:49.294Z,19.74
2023-07-15T02:22:49.344Z,19.73
2023-07-15T02:23:49.273Z,19.67
2023-07-15T02:24:49.274Z,19.70
2023-07-15T02:25:49.279Z,19.70
2023-07-15T02:26:49.266Z,19.70
2023-07-15T02:27:49.266Z,19.70
2023-07-15T02:28:49.250Z,19.71
2023-07-15T02:29:49.261Z,19.67
2023-07-15T02:30:49.279Z,19.73
2023-07-15T02:31:49.243Z,19.71
2023-07-15T02:32:49.303Z,19.73
2023-07-15T02:33:49.241Z,19.77
2023-07-15T02:34:49.227Z,19.70
2023-07-15T02:35:49.225Z,19.69
2023-07-15T02:36:49.240Z,19.77
2023-07-15T02:37:49.218Z,19.79
2023-07-15T02:38:49.224Z,19.81
2023-07-15T02:39:49.211Z,19.71
2023-07-15T02:40:49.233Z,19.77
2023-07-15T02:41:49.199Z,19.77
2023-07-15T02:42:49.233Z,19.69
2023-07-15T02:43:49.189Z,19.77
2023-07-15T02:44:49.189Z,19.82
2023-07-15T02:45:49.207Z,19.76
2023-07-15T02:46:49.263Z,19.76
2023-07-15T02:47:49.234Z,19.77
2023-07-15T02:48:49.165Z,19.81
2023-07-15T02:49:49.168Z,19.84
2023-07-15T02:50:49.161Z,19.81
2023-07-15T02:51:49.157Z,19.77
2023-07-15T02:52:49.161Z,19.81
2023-07-15T02:53:49.151Z,19.84
2023-07-15T02:54:49.143Z,19.79
2023-07-15T02:55:49.148Z,19.85
2023-07-15T02:56:49.136Z,19.86
2023-07-15T02:57:49.145Z,19.85
2023-07-15T02:58:49.121Z,19.85
2023-07-15T02:59:49.126Z,19.81
2023-07-15T03:00:49.119Z,19.77
2023-07-15T03:01:49.181Z,19.85
2023-07-15T03:02:49.471Z,19.86
2023-07-15T03:03:49.102Z,19.89
2023-07-15T03:04:49.140Z,19.91
2023-07-15T03:05:49.103Z,19.86
2023-07-15T03:06:49.092Z,19.84
2023-07-15T03:07:49.091Z,19.79
2023-07-15T03:08:49.084Z,19.79
2023-07-15T03:09:49.081Z,19.81
2023-07-15T03:10:49.074Z,19.67
2023-07-15T03:11:49.071Z,19.76
2023-07-15T03:12:49.084Z,19.66
2023-07-15T03:13:49.069Z,19.62
2023-07-15T03:14:49.058Z,19.52
2023-07-15T03:15:49.055Z,19.34
2023-07-15T03:16:49.076Z,19.36
2023-07-15T03:17:49.092Z,19.30
2023-07-15T03:18:49.036Z,19.19
2023-07-15T03:19:49.048Z,19.09
2023-07-15T03:20:49.037Z,19.04
2023-07-15T03:21:49.057Z,18.93
2023-07-15T03:22:49.037Z,18.75
2023-07-15T03:23:49.023Z,18.95
2023-07-15T03:24:49.018Z,18.71
2023-07-15T03:25:49.008Z,18.75
2023-07-15T03:26:49.010Z,18.65
2023-07-15T03:27:49.012Z,18.55
2023-07-15T03:28:49.000Z,18.55
2023-07-15T03:29:48.992Z,18.50
2023-07-15T03:30:48.989Z,18.41
2023-07-15T03:31:49.007Z,18.35
2023-07-15T03:32:49.013Z,18.31
2023-07-15T03:33:48.988Z,18.33
2023-07-15T03:34:48.973Z,18.18
2023-07-15T03:35:48.971Z,18.13
2023-07-15T03:36:48.969Z,18.15
2023-07-15T03:37:48.976Z,18.19
2023-07-15T03:38:48.973Z,18.18
2023-07-15T03:39:48.957Z,18.16
2023-07-15T03:40:48.946Z,18.15
2023-07-15T03:41:48.941Z,18.22
2023-07-15T03:42:48.932Z,18.16
2023-07-15T03:43:48.929Z,18.13
2023-07-15T03:44:48.933Z,18.20
2023-07-15T03:45:48.997Z,18.19
2023-07-15T03:46:48.938Z,18.11
2023-07-15T03:47:48.968Z,18.15
2023-07-15T03:48:48.912Z,18.18
2023-07-15T03:49:48.912Z,18.23
2023-07-15T03:50:48.894Z,18.29
2023-07-15T03:51:48.896Z,18.29
2023-07-15T03:52:48.897Z,18.25
2023-07-15T03:53:48.883Z,18.31
2023-07-15T03:54:48.885Z,18.40
2023-07-15T03:55:48.873Z,18.44
2023-07-15T03:56:48.877Z,18.38
2023-07-15T03:57:48.864Z,18.47
2023-07-15T03:58:48.861Z,18.52
2023-07-15T03:59:48.858Z,18.41
2023-07-15T04:00:48.849Z,18.44
2023-07-15T04:01:48.927Z,18.43
2023-07-15T04:02:48.886Z,18.41
2023-07-15T04:03:48.881Z,18.50
2023-07-15T04:04:48.842Z,18.50
2023-07-15T04:05:48.830Z,18.47
2023-07-15T04:06:48.825Z,18.44
2023-07-15T04:07:48.876Z,18.45
2023-07-15T04:08:48.813Z,18.43
2023-07-15T04:09:48.824Z,18.37
2023-07-15T04:10:48.812Z,18.29
2023-07-15T04:11:48.803Z,18.23
2023-07-15T04:12:48.802Z,18.29
2023-07-15T04:13:48.792Z,18.22
2023-07-15T04:14:48.786Z,18.18
2023-07-15T04:15:48.903Z,18.15
2023-07-15T04:16:48.782Z,18.25
2023-07-15T04:17:48.908Z,18.19
2023-07-15T04:18:48.777Z,18.25
2023-07-15T04:19:48.762Z,18.31
2023-07-15T04:20:48.841Z,18.31
2023-07-15T04:21:48.789Z,18.25
2023-07-15T04:22:48.810Z,18.29
2023-07-15T04:23:48.775Z,18.41
2023-07-15T04:24:48.744Z,18.29
2023-07-15T04:25:48.733Z,18.41
2023-07-15T04:26:48.729Z,18.44
2023-07-15T04:27:48.721Z,18.38
2023-07-15T04:28:48.719Z,18.44
2023-07-15T04:29:48.714Z,18.38
2023-07-15T04:30:48.716Z,18.47
2023-07-15T04:31:48.736Z,18.49
2023-07-15T04:32:48.774Z,18.49
2023-07-15T04:33:48.707Z,18.52
2023-07-15T04:34:48.691Z,18.55
2023-07-15T04:35:48.686Z,18.63
2023-07-15T04:36:48.681Z,18.63
2023-07-15T04:37:48.703Z,18.68
2023-07-15T04:38:48.673Z,18.63
2023-07-15T04:39:48.668Z,18.66
2023-07-15T04:40:48.663Z,18.70
2023-07-15T04:41:48.661Z,18.77
2023-07-15T04:42:48.656Z,18.74
2023-07-15T04:43:48.648Z,18.75
2023-07-15T04:44:48.730Z,18.83
2023-07-15T04:45:48.670Z,18.88
2023-07-15T04:46:48.649Z,18.84
2023-07-15T04:47:48.637Z,18.93
2023-07-15T04:48:48.623Z,18.93
2023-07-15T04:49:48.615Z,19.07
2023-07-15T04:50:48.617Z,18.99
2023-07-15T04:51:48.606Z,19.02
2023-07-15T04:52:48.607Z,19.16
2023-07-15T04:53:48.600Z,19.08
2023-07-15T04:54:48.619Z,19.16
2023-07-15T04:55:48.596Z,19.19
2023-07-15T04:56:48.587Z,19.24
2023-07-15T04:57:48.581Z,19.21
2023-07-15T04:58:48.577Z,19.26
2023-07-15T04:59:48.571Z,19.36
2023-07-15T05:00:48.568Z,19.34
2023-07-15T05:01:48.636Z,19.40
2023-07-15T05:02:48.619Z,19.40
2023-07-15T05:03:48.567Z,19.41
2023-07-15T05:04:48.551Z,19.47
2023-07-15T05:05:48.558Z,19.49
2023-07-15T05:06:48.538Z,19.54
2023-07-15T05:07:57.786Z,19.64
2023-07-15T05:08:48.529Z,19.67
2023-07-15T05:09:48.528Z,19.62
2023-07-15T05:10:48.521Z,19.63
2023-07-15T05:11:48.517Z,19.67
2023-07-15T05:12:48.528Z,19.81
2023-07-15T05:13:48.511Z,19.79
2023-07-15T05:14:48.499Z,19.88
2023-07-15T05:15:48.498Z,19.91
2023-07-15T05:16:48.499Z,19.94
2023-07-15T05:17:48.529Z,19.95
2023-07-15T05:18:48.495Z,20.07
2023-07-15T05:19:48.477Z,19.99
2023-07-15T05:20:48.479Z,20.10
2023-07-15T05:21:48.470Z,20.09
2023-07-15T05:22:48.491Z,20.09
2023-07-15T05:23:48.458Z,20.14
2023-07-15T05:24:48.458Z,20.11
2023-07-15T05:25:48.454Z,20.24
2023-07-15T05:26:48.448Z,20.36
2023-07-15T05:27:48.451Z,20.34
2023-07-15T05:28:48.436Z,20.40
2023-07-15T05:29:48.437Z,20.32
2023-07-15T05:30:48.433Z,20.48
2023-07-15T05:31:48.487Z,20.65
2023-07-15T05:32:48.487Z,20.78
2023-07-15T05:33:48.422Z,20.85
2023-07-15T05:34:48.418Z,20.97
2023-07-15T05:35:48.409Z,21.03
2023-07-15T05:36:48.405Z,21.12
2023-07-15T05:37:48.405Z,21.29
2023-07-15T05:38:48.393Z,21.27
2023-07-15T05:39:48.392Z,21.46
2023-07-15T05:40:48.391Z,21.54
2023-07-15T05:41:48.383Z,21.62
2023-07-15T05:42:48.397Z,21.58
2023-07-15T05:43:48.371Z,21.61
2023-07-15T05:44:48.369Z,21.64
2023-07-15T05:45:48.371Z,21.70
2023-07-15T05:46:48.405Z,21.70
2023-07-15T05:47:48.440Z,21.88
2023-07-15T05:48:49.627Z,21.99
2023-07-15T05:49:48.410Z,22.08
2023-07-15T05:50:48.346Z,22.10
2023-07-15T05:51:48.338Z,22.17
2023-07-15T05:52:48.337Z,22.23
2023-07-15T05:53:48.333Z,22.26
2023-07-15T05:54:48.335Z,22.22
2023-07-15T05:55:48.337Z,22.25
2023-07-15T05:56:48.356Z,22.26
2023-07-15T05:57:48.317Z,22.25
2023-07-15T05:58:48.310Z,22.39
2023-07-15T05:59:48.320Z,22.28
2023-07-15T06:00:48.329Z,22.28
2023-07-15T06:01:48.306Z,22.35
2023-07-15T06:02:48.340Z,22.39
2023-07-15T06:03:48.356Z,22.25
2023-07-15T06:04:48.293Z,22.29
2023-07-15T06:05:48.287Z,22.20
2023-07-15T06:06:48.293Z,22.25
2023-07-15T06:07:48.276Z,22.30
2023-07-15T06:08:48.281Z,22.30
2023-07-15T06:09:49.201Z,22.30
2023-07-15T06:10:48.285Z,22.23
2023-07-15T06:11:48.263Z,22.28
2023-07-15T06:12:48.267Z,22.30
2023-07-15T06:13:48.259Z,22.33
2023-07-15T06:14:48.254Z,22.44
2023-07-15T06:15:48.250Z,22.48
2023-07-15T06:16:48.270Z,22.60
2023-07-15T06:17:48.265Z,22.60
2023-07-15T06:18:48.244Z,22.70
2023-07-15T06:19:48.237Z,22.85
2023-07-15T06:20:48.237Z,22.88
2023-07-15T06:21:48.234Z,23.06
2023-07-15T06:22:48.268Z,23.06
2023-07-15T06:23:48.225Z,23.12
2023-07-15T06:24:48.223Z,23.23
2023-07-15T06:25:48.214Z,23.21
2023-07-15T06:26:48.214Z,23.23
2023-07-15T06:27:48.207Z,23.27
2023-07-15T06:28:48.205Z,23.24
2023-07-15T06:29:48.202Z,23.40
2023-07-15T06:30:48.223Z,23.46
2023-07-15T06:31:48.210Z,23.40
2023-07-15T06:32:48.200Z,23.46
2023-07-15T06:33:48.188Z,23.55
2023-07-15T06:34:48.191Z,23.44
2023-07-15T06:35:48.182Z,23.48
2023-07-15T06:36:48.177Z,23.55
2023-07-15T06:37:48.176Z,23.58
2023-07-15T06:38:48.183Z,23.58
2023-07-15T06:39:48.209Z,23.55
2023-07-15T06:40:48.173Z,23.69
2023-07-15T06:41:48.162Z,23.62
2023-07-15T06:42:48.177Z,23.68
2023-07-15T06:43:48.153Z,23.71
2023-07-15T06:44:48.198Z,23.76
2023-07-15T06:45:48.151Z,23.80
2023-07-15T06:46:48.230Z,23.80
2023-07-15T06:47:48.206Z,23.78
2023-07-15T06:48:48.144Z,23.91
2023-07-15T06:49:48.139Z,23.98
2023-07-15T06:50:48.147Z,24.03
2023-07-15T06:51:48.138Z,24.16
2023-07-15T06:52:48.166Z,24.23
2023-07-15T06:53:48.130Z,24.29
2023-07-15T06:54:48.120Z,24.28
2023-07-15T06:55:48.125Z,24.33
2023-07-15T06:56:48.117Z,24.32
2023-07-15T06:57:48.113Z,24.30
2023-07-15T06:58:48.147Z,24.30
2023-07-15T06:59:48.108Z,24.38
2023-07-15T07:00:48.156Z,24.47
2023-07-15T07:01:48.102Z,24.43
2023-07-15T07:02:48.149Z,24.43
2023-07-15T07:03:48.097Z,24.51
2023-07-15T07:04:48.098Z,24.54
2023-07-15T07:05:48.210Z,24.53
2023-07-15T07:06:48.092Z,24.58
2023-07-15T07:07:48.083Z,24.55
2023-07-15T07:08:48.084Z,24.51
2023-07-15T07:09:48.080Z,24.60
2023-07-15T07:10:48.084Z,24.58
2023-07-15T07:11:48.086Z,24.53
2023-07-15T07:12:48.073Z,24.55
2023-07-15T07:13:48.072Z,24.50
2023-07-15T07:14:48.067Z,24.61
2023-07-15T07:15:48.063Z,24.54
2023-07-15T07:16:48.060Z,24.54
2023-07-15T07:17:48.187Z,24.55
2023-07-15T07:18:48.103Z,24.50
2023-07-15T07:19:48.055Z,24.68
2023-07-15T07:20:48.055Z,24.76
2023-07-15T07:21:48.051Z,24.85
2023-07-15T07:22:48.095Z,24.91
2023-07-15T07:23:48.040Z,25.07
2023-07-15T07:24:48.052Z,25.18
2023-07-15T07:25:50.110Z,25.14
2023-07-15T07:26:48.040Z,25.22
2023-07-15T07:27:48.032Z,25.18
2023-07-15T07:28:48.031Z,25.25
2023-07-15T07:29:48.031Z,25.16
2023-07-15T07:30:48.070Z,25.26
2023-07-15T07:31:48.037Z,25.26
2023-07-15T07:32:48.090Z,25.25
2023-07-15T07:33:48.035Z,25.26
2023-07-15T07:34:48.018Z,25.23
2023-07-15T07:35:48.080Z,25.25
2023-07-15T07:36:48.014Z,25.21
2023-07-15T07:37:48.017Z,25.13
2023-07-15T07:38:48.010Z,25.14
2023-07-15T07:39:48.008Z,25.04
2023-07-15T07:40:48.029Z,25.21
2023-07-15T07:41:48.008Z,25.13
2023-07-15T07:42:48.002Z,25.23
2023-07-15T07:43:47.997Z,25.13
2023-07-15T07:44:48.000Z,25.25
2023-07-15T07:45:47.992Z,25.28
2023-07-15T07:46:48.090Z,25.26
2023-07-15T07:47:48.067Z,25.25
2023-07-15T07:48:48.012Z,25.31
2023-07-15T07:49:47.998Z,25.26
2023-07-15T07:50:48.003Z,25.29
2023-07-15T07:51:47.995Z,25.31
2023-07-15T07:52:48.004Z,25.32
2023-07-15T07:53:48.002Z,25.36
2023-07-15T07:54:48.001Z,25.32
2023-07-15T07:55:48.015Z,25.31
2023-07-15T07:56:47.973Z,25.32
2023-07-15T07:57:47.968Z,25.35
2023-07-15T07:58:47.969Z,25.40
2023-07-15T07:59:47.981Z,25.50
2023-07-15T08:00:47.988Z,25.48
2023-07-15T08:01:47.975Z,25.65
2023-07-15T08:02:48.073Z,25.69
2023-07-15T08:03:48.049Z,25.63
2023-07-15T08:04:48.008Z,25.83
2023-07-15T08:05:47.972Z,25.83
2023-07-15T08:06:47.950Z,25.81
2023-07-15T08:07:47.961Z,25.88
2023-07-15T08:08:47.947Z,25.99
2023-07-15T08:09:47.970Z,25.98
2023-07-15T08:10:47.947Z,25.98
2023-07-15T08:11:47.945Z,26.02
2023-07-15T08:12:47.939Z,26.02
2023-07-15T08:13:47.948Z,25.98
2023-07-15T08:14:47.941Z,26.07
2023-07-15T08:15:47.945Z,26.06
2023-07-15T08:16:47.945Z,26.10
2023-07-15T08:17:48.013Z,26.13
2023-07-15T08:18:47.930Z,26.06
2023-07-15T08:19:47.944Z,26.09
2023-07-15T08:20:47.926Z,26.21
2023-07-15T08:21:47.931Z,26.23
2023-07-15T08:22:47.973Z,26.25
2023-07-15T08:23:47.932Z,26.26
2023-07-15T08:24:47.938Z,26.36
2023-07-15T08:25:47.968Z,26.31
2023-07-15T08:26:47.940Z,26.40
2023-07-15T08:27:47.912Z,26.48
2023-07-15T08:28:47.926Z,26.68
2023-07-15T08:29:47.909Z,26.75
2023-07-15T08:30:47.916Z,26.85
2023-07-15T08:31:47.940Z,27.10
2023-07-15T08:32:47.945Z,27.33
2023-07-15T08:33:47.901Z,27.54
2023-07-15T08:34:47.903Z,27.58
2023-07-15T08:35:47.899Z,27.73
2023-07-15T08:36:47.896Z,27.75
2023-07-15T08:37:47.899Z,27.75
2023-07-15T08:38:47.895Z,27.77
2023-07-15T08:39:47.894Z,27.80
2023-07-15T08:40:47.894Z,27.78
2023-07-15T08:41:47.895Z,27.74
2023-07-15T08:42:47.895Z,27.77
2023-07-15T08:43:50.899Z,27.77
2023-07-15T08:44:47.889Z,27.80
2023-07-15T08:45:47.912Z,27.86
2023-07-15T08:46:47.941Z,27.83
2023-07-15T08:47:47.911Z,27.87
2023-07-15T08:48:47.889Z,28.02
2023-07-15T08:49:47.889Z,28.00
2023-07-15T08:50:47.886Z,27.96
2023-07-15T08:51:47.882Z,28.08
2023-07-15T08:52:47.892Z,28.01
2023-07-15T08:53:47.925Z,28.04
2023-07-15T08:54:47.882Z,28.12
2023-07-15T08:55:47.879Z,28.00
2023-07-15T08:56:47.881Z,28.08
2023-07-15T08:57:47.876Z,28.07
2023-07-15T08:58:47.876Z,28.04
2023-07-15T08:59:47.876Z,28.02
2023-07-15T09:00:47.875Z,28.08
2023-07-15T09:01:47.974Z,27.98
2023-07-15T09:02:47.929Z,28.12
2023-07-15T09:03:47.906Z,28.12
2023-07-15T09:04:47.946Z,28.15
2023-07-15T09:05:47.870Z,28.19
2023-07-15T09:06:47.867Z,28.20
2023-07-15T09:07:47.861Z,28.20
2023-07-15T09:08:47.867Z,28.19
2023-07-15T09:09:47.874Z,28.05
2023-07-15T09:10:47.868Z,28.05
2023-07-15T09:11:47.875Z,27.98
2023-07-15T09:12:47.886Z,27.92
2023-07-15T09:13:47.874Z,27.90
2023-07-15T09:14:53.925Z,27.87
2023-07-15T09:15:47.867Z,27.74
2023-07-15T09:16:47.931Z,27.68
2023-07-15T09:17:47.886Z,27.59
2023-07-15T09:18:47.868Z,27.60
2023-07-15T09:19:47.863Z,27.52
2023-07-15T09:20:47.865Z,27.40
2023-07-15T09:21:47.863Z,27.51
2023-07-15T09:22:47.918Z,27.47
2023-07-15T09:23:47.862Z,27.40
2023-07-15T09:24:47.869Z,27.40
2023-07-15T09:25:47.862Z,27.40
2023-07-15T09:26:47.857Z,27.32
2023-07-15T09:27:47.860Z,27.32
2023-07-15T09:28:47.854Z,27.30
2023-07-15T09:29:47.858Z,27.45
2023-07-15T09:30:47.858Z,27.40
2023-07-15T09:31:48.460Z,27.40
2023-07-15T09:32:47.910Z,27.40
2023-07-15T09:33:47.856Z,27.42
2023-07-15T09:34:47.851Z,27.54
2023-07-15T09:35:47.852Z,27.40
2023-07-15T09:36:47.851Z,27.39
2023-07-15T09:37:47.854Z,27.37
2023-07-15T09:38:47.848Z,27.35
2023-07-15T09:39:47.856Z,27.29
2023-07-15T09:40:47.844Z,27.21
2023-07-15T09:41:47.859Z,27.10
2023-07-15T09:42:47.843Z,27.12
2023-07-15T09:43:47.872Z,27.14
2023-07-15T09:44:47.840Z,27.02
2023-07-15T09:45:47.877Z,27.11
2023-07-15T09:46:47.846Z,27.07
2023-07-15T09:47:47.862Z,27.14
2023-07-15T09:48:47.838Z,27.12
2023-07-15T09:49:47.840Z,27.07
2023-07-15T09:50:47.835Z,27.03
2023-07-15T09:51:47.838Z,26.95
2023-07-15T09:52:47.844Z,26.89
2023-07-15T09:53:47.836Z,26.88
2023-07-15T09:54:47.840Z,26.90
2023-07-15T09:55:47.832Z,26.97
2023-07-15T09:56:47.836Z,27.02
2023-07-15T09:57:47.835Z,26.92
2023-07-15T09:58:47.825Z,26.89
2023-07-15T09:59:47.832Z,26.96
2023-07-15T10:00:47.897Z,26.93
2023-07-15T10:01:47.935Z,26.90
2023-07-15T10:02:47.906Z,26.89
2023-07-15T10:03:47.833Z,26.89
2023-07-15T10:04:47.839Z,26.89
2023-07-15T10:05:47.829Z,26.75
2023-07-15T10:06:47.838Z,26.78
2023-07-15T10:07:47.822Z,26.66
2023-07-15T10:08:47.816Z,26.63
2023-07-15T10:09:47.820Z,26.59
2023-07-15T10:10:47.817Z,26.53
2023-07-15T10:11:47.818Z,26.55
2023-07-15T10:12:47.820Z,26.63
2023-07-15T10:13:47.814Z,26.52
2023-07-15T10:14:47.811Z,26.62
2023-07-15T10:15:47.824Z,26.56
2023-07-15T10:16:47.814Z,26.63
2023-07-15T10:17:47.884Z,26.66
2023-07-15T10:18:47.809Z,26.63
2023-07-15T10:19:47.811Z,26.65
2023-07-15T10:20:47.803Z,26.73
2023-07-15T10:21:47.825Z,26.65
2023-07-15T10:22:47.834Z,26.71
2023-07-15T10:23:47.801Z,26.68
2023-07-15T10:24:47.802Z,26.77
2023-07-15T10:25:47.801Z,26.73
2023-07-15T10:26:47.802Z,26.75
2023-07-15T10:27:47.805Z,26.78
2023-07-15T10:28:47.793Z,26.66
2023-07-15T10:29:52.036Z,26.75
2023-07-15T10:30:57.442Z,26.77
2023-07-15T10:31:47.798Z,26.70
2023-07-15T10:32:47.810Z,26.62
2023-07-15T10:33:47.788Z,26.66
2023-07-15T10:34:47.787Z,26.60
2023-07-15T10:35:47.791Z,26.65
2023-07-15T10:36:47.789Z,26.52
2023-07-15T10:37:47.800Z,26.53
2023-07-15T10:38:47.784Z,26.59
2023-07-15T10:39:47.787Z,26.55
2023-07-15T10:40:47.789Z,26.58
2023-07-15T10:41:47.778Z,26.44
2023-07-15T10:42:47.785Z,26.43
2023-07-15T10:43:47.777Z,26.56
2023-07-15T10:44:47.780Z,26.53
2023-07-15T10:45:47.777Z,26.52
2023-07-15T10:46:47.829Z,26.63
2023-07-15T10:47:47.811Z,26.63
2023-07-15T10:48:47.770Z,26.63
2023-07-15T10:49:50.335Z,26.73
2023-07-15T10:50:47.773Z,26.73
2023-07-15T10:51:47.777Z,26.84
2023-07-15T10:52:47.771Z,26.84
2023-07-15T10:53:47.778Z,26.77
2023-07-15T10:54:47.772Z,26.92
2023-07-15T10:55:47.775Z,26.73
2023-07-15T10:56:47.768Z,26.74
2023-07-15T10:57:54.781Z,26.55
2023-07-15T10:58:47.762Z,26.40
2023-07-15T10:59:47.763Z,26.31
2023-07-15T11:00:47.812Z,26.18
2023-07-15T11:01:47.762Z,26.13
2023-07-15T11:02:47.797Z,25.99
2023-07-15T11:03:47.761Z,25.99
2023-07-15T11:04:47.804Z,25.96
2023-07-15T11:05:47.759Z,25.91
2023-07-15T11:06:47.810Z,25.84
2023-07-15T11:07:47.759Z,25.84
2023-07-15T11:08:47.753Z,25.77
2023-07-15T11:09:47.764Z,25.84
2023-07-15T11:10:47.750Z,25.83
2023-07-15T11:11:47.752Z,25.83
2023-07-15T11:12:47.749Z,25.83
2023-07-15T11:13:47.743Z,25.77
2023-07-15T11:14:47.745Z,25.77
2023-07-15T11:15:47.746Z,25.77
2023-07-15T11:16:47.767Z,25.78
2023-07-15T11:17:47.774Z,25.80
2023-07-15T11:18:47.739Z,25.81
2023-07-15T11:19:47.754Z,25.81
2023-07-15T11:20:47.741Z,25.87
2023-07-15T11:21:47.742Z,25.87
2023-07-15T11:22:47.751Z,25.83
2023-07-15T11:23:47.746Z,25.91
2023-07-15T11:24:47.735Z,25.93
2023-07-15T11:25:47.740Z,25.93
2023-07-15T11:26:47.736Z,25.96
2023-07-15T11:27:47.736Z,25.99
2023-07-15T11:28:47.745Z,25.95
2023-07-15T11:29:47.735Z,25.91
2023-07-15T11:30:47.768Z,25.87
2023-07-15T11:31:47.733Z,25.99
2023-07-15T11:32:47.781Z,25.98
2023-07-15T11:33:47.728Z,25.96
2023-07-15T11:34:47.737Z,26.00
2023-07-15T11:35:47.787Z,25.88
2023-07-15T11:36:47.724Z,25.87
2023-07-15T11:37:47.725Z,25.85
2023-07-15T11:38:47.719Z,25.80
2023-07-15T11:39:47.733Z,25.87
2023-07-15T11:40:47.718Z,25.81
2023-07-15T11:41:47.720Z,25.96
2023-07-15T11:42:47.715Z,25.90
2023-07-15T11:43:47.721Z,25.88
2023-07-15T11:44:47.711Z,25.87
2023-07-15T11:45:47.725Z,25.91
2023-07-15T11:46:47.821Z,25.90
2023-07-15T11:47:47.733Z,25.90
2023-07-15T11:48:47.708Z,25.80
2023-07-15T11:49:47.709Z,25.80
2023-07-15T11:50:47.707Z,25.77
2023-07-15T11:51:47.709Z,25.81
2023-07-15T11:52:47.709Z,25.75
2023-07-15T11:53:47.701Z,25.81
2023-07-15T11:54:47.702Z,25.87
2023-07-15T11:55:47.702Z,25.85
2023-07-15T11:56:47.696Z,25.84
2023-07-15T11:57:47.699Z,25.87
2023-07-15T11:58:47.717Z,25.80
2023-07-15T11:59:47.693Z,25.77
2023-07-15T12:00:47.689Z,25.78
2023-07-15T12:01:47.719Z,25.72
2023-07-15T12:02:47.709Z,25.59
2023-07-15T12:03:47.749Z,25.66
2023-07-15T12:04:47.688Z,25.68
2023-07-15T12:05:47.697Z,25.63
2023-07-15T12:06:47.710Z,25.70
2023-07-15T12:07:48.499Z,25.68
2023-07-15T12:08:47.685Z,25.62
2023-07-15T12:09:47.697Z,25.58
2023-07-15T12:10:54.888Z,25.66
2023-07-15T12:12:51.653Z,25.58
2023-07-15T12:13:51.627Z,25.65
2023-07-15T12:15:55.843Z,25.65
2023-07-15T12:16:55.640Z,25.77
2023-07-15T12:18:59.662Z,25.87
2023-07-15T12:19:59.541Z,25.88
2023-07-15T12:21:52.477Z,25.99
2023-07-15T12:22:52.430Z,26.10
2023-07-15T12:24:56.386Z,26.31
2023-07-15T12:25:56.374Z,26.22
2023-07-15T12:28:00.361Z,26.34
2023-07-15T12:29:00.346Z,26.29
2023-07-15T12:30:53.289Z,26.29
2023-07-15T12:31:53.231Z,26.40
2023-07-15T12:33:57.254Z,26.34
2023-07-15T12:34:57.180Z,26.40
2023-07-15T12:37:01.164Z,26.28
2023-07-15T12:38:01.147Z,26.13
2023-07-15T12:40:05.109Z,25.98
2023-07-15T12:41:05.111Z,25.96
2023-07-15T12:43:09.057Z,25.90
2023-07-15T12:44:09.106Z,25.80
2023-07-15T12:46:13.808Z,25.78
2023-07-15T12:47:12.996Z,25.68
2023-07-15T12:49:16.960Z,25.84
2023-07-15T12:50:16.955Z,25.77
2023-07-15T12:52:20.914Z,25.54
2023-07-15T12:53:20.911Z,25.63
2023-07-15T12:55:24.867Z,25.50
2023-07-15T12:56:24.871Z,25.51
2023-07-15T12:58:28.833Z,25.36
2023-07-15T12:59:28.804Z,25.31
2023-07-15T13:01:21.753Z,24.91
2023-07-15T13:02:21.723Z,24.65
2023-07-15T13:03:21.779Z,24.54
2023-07-15T13:04:21.710Z,24.39
2023-07-15T13:05:21.690Z,24.28
2023-07-15T13:06:21.691Z,24.11
2023-07-15T13:07:21.691Z,24.03
2023-07-15T13:08:21.690Z,24.02
2023-07-15T13:09:21.688Z,23.91
2023-07-15T13:10:21.689Z,23.95